Carnival Conquest — 3FPQ9 — position and weather

sailwx.info

Track history (hours):
 
Tides and Currents Weather Stations Pressure Air Temp Water Temp Dewpoint Dewpoint Depression Visibility Wind Speed Wind Dir Waves Ship Positions

Carnival Conquest

Operator: Carnival Cruise Lines

Last reported at 2017-May-29 11:30 UTC. Time now 2017-May-29 11:31 UTC.
Position N 26°05' W 080°07'.

Type: Ship. MMSI: 357657000.

Date/timePositionNaut miles runAvg speedWind from/ knotsBaromVisibWave heightAir tempDewpointWater temp
2017-May-29 11:30N 26°05' W 080°07'0 0.0
2017-May-29 11:00N 26°05' W 080°07'0 0.0
2017-May-29 10:23N 26°05' W 080°07'0 0.0
2017-May-29 09:59N 26°05' W 080°07'0 0.0
2017-May-29 09:29N 26°05' W 080°07'0 0.4
2017-May-29 09:00N 26°05' W 080°07'4 8.2
2017-May-29 08:30N 26°06' W 080°03'612.9
2017-May-29 08:00N 26°06' W 079°55'815.4
2017-May-29 07:31N 26°07' W 079°47'816.9
2017-May-29 07:01N 26°09' W 079°38'817.0
2017-May-29 06:31N 26°10' W 079°28'917.0
2017-May-29 06:01N 26°11' W 079°19'814.9
2017-May-29 05:30N 26°12' W 079°11'917.2
2017-May-29 05:00N 26°12' W 079°01'917.2
2017-May-29 04:31N 26°10' W 078°52'1018.3
2017-May-29 03:58N 26°08' W 078°41'6917.4
2017-May-29 00:00N 25°42' W 077°30'33 1.9 180 / 101017.0 28.022.029.0
2017-May-28 07:00N 25°48' W 076°54'4211.1 150 / 151016.0 26.023.027.0
2017-May-28 03:14N 25°33' W 076°11'3 8.6
2017-May-28 02:50N 25°31' W 076°08'3412.0
2017-May-28 00:00N 25°12' W 075°36'54 2.3 1017.0 26.023.028.0
2017-May-27 00:00N 25°36' W 076°30'129 7.6 1017.0 26.023.028.0
2017-May-26 07:00N 26°12' W 078°48'17 6.6 180 / 151014.0 28.025.028.0
2017-May-26 04:24N 26°18' W 079°06'3 7.1
2017-May-26 04:00N 26°17' W 079°09'4 7.5
2017-May-26 03:30N 26°17' W 079°13'4 7.8
2017-May-26 02:58N 26°16' W 079°18'4 7.9
2017-May-26 02:30N 26°15' W 079°22'4 7.9
2017-May-26 02:00N 26°14' W 079°26'4 7.8
2017-May-26 01:30N 26°13' W 079°30'4 8.7
2017-May-26 01:00N 26°12' W 079°35'6457.4
2017-May-26 01:00N 26°06' W 079°36'611.9 260 / 151014.0 28.022.028.0
2017-May-26 00:30N 26°11' W 079°39'4 8.1
2017-May-26 00:00N 26°10' W 079°44'4 8.1
2017-May-25 23:30N 26°10' W 079°48'4 8.2
2017-May-25 23:00N 26°09' W 079°53'4 8.3
2017-May-25 22:30N 26°08' W 079°57'4 8.9
2017-May-25 22:00N 26°07' W 080°02'4 8.4
2017-May-25 21:30N 26°06' W 080°07'0 0.9
2017-May-25 20:59N 26°05' W 080°07'0 0.0
2017-May-25 20:28N 26°05' W 080°07'0 0.0
2017-May-25 19:55N 26°05' W 080°07'0 0.0
2017-May-25 19:28N 26°05' W 080°07'0 0.0
2017-May-25 18:49N 26°05' W 080°07'0 0.0
2017-May-25 18:30N 26°05' W 080°07'0 0.0
2017-May-25 18:00N 26°05' W 080°07'0 0.0
2017-May-25 17:24N 26°05' W 080°07'0 0.0
2017-May-25 16:51N 26°05' W 080°07'0 0.0
2017-May-25 16:30N 26°05' W 080°07'0 0.0
2017-May-25 15:59N 26°05' W 080°07'0 0.0
2017-May-25 15:26N 26°05' W 080°07'0 0.0
2017-May-25 14:56N 26°05' W 080°07'0 0.0
2017-May-25 13:59N 26°05' W 080°07'0 0.0
2017-May-25 13:28N 26°05' W 080°07'0 0.0
2017-May-25 12:58N 26°05' W 080°07'0 0.0
2017-May-25 12:22N 26°05' W 080°07'0 0.1
2017-May-25 12:00N 26°05' W 080°07'3 6.3
2017-May-25 11:30N 26°06' W 080°04'611.6
2017-May-25 11:01N 26°06' W 079°57'917.8
2017-May-25 10:30N 26°08' W 079°47'918.8
2017-May-25 10:00N 26°09' W 079°37'1019.0
2017-May-25 09:30N 26°10' W 079°26'918.9
2017-May-25 09:00N 26°11' W 079°16'5919.4
2017-May-25 06:00N 26°00' W 078°12'3918.4 280 / 301012.0 26.023.028.0
2017-May-25 03:52N 25°49' W 077°30'719.9
2017-May-25 03:30N 25°47' W 077°23'1020.4
2017-May-25 03:00N 25°45' W 077°12'1020.0
2017-May-25 02:30N 25°43' W 077°01'1219.8
2017-May-25 01:55N 25°41' W 076°48'819.5
2017-May-25 01:30N 25°39' W 076°39'2919.1
2017-May-25 00:00N 25°24' W 076°12'168 9.9 130 / 161013.0 26.025.026.0
2017-May-24 07:00N 23°12' W 074°18'12818.3 150 / 201016.0 26.023.026.0
2017-May-24 00:00N 22°18' W 072°12'30 1.7 090 / 161016.0 26.023.027.0
2017-May-23 06:00N 22°06' W 071°42'6510.9 140 / 201017.0 26.022.027.0
2017-May-23 00:00N 22°48' W 072°36'21912.1 070 / 201017.0 25.021.026.0
2017-May-22 06:00N 25°12' W 075°36'6913.9 090 / 151020.0 26.020.026.0
2017-May-22 01:00N 25°36' W 076°48'38 2.3 090 / 181019.0 25.019.026.0
2017-May-21 08:00N 25°42' W 077°30'9113.1 050 / 201019.0 26.022.027.0
2017-May-21 01:00N 26°12' W 079°06'1110.2 110 / 181018.0 26.020.028.0
2017-May-20 23:52N 26°16' W 079°18'513.5
2017-May-20 23:30N 26°14' W 079°23'715.1
2017-May-20 23:00N 26°12' W 079°31'815.4
2017-May-20 22:30N 26°10' W 079°40'815.3
2017-May-20 22:00N 26°09' W 079°48'715.0
2017-May-20 21:30N 26°07' W 079°56'713.1
2017-May-20 21:01N 26°07' W 080°03'4 6.9
2017-May-20 20:29N 26°05' W 080°07'0 0.1
2017-May-20 19:59N 26°05' W 080°07'0 0.0
2017-May-20 19:25N 26°05' W 080°07'0 0.0
2017-May-20 18:52N 26°05' W 080°07'0 0.0
2017-May-20 18:25N 26°05' W 080°07'0 0.0
2017-May-20 17:46N 26°05' W 080°07'0 0.0
2017-May-20 17:27N 26°05' W 080°07'0 0.0
2017-May-20 16:54N 26°05' W 080°07'0 0.0
2017-May-20 16:24N 26°05' W 080°07'0 0.0
2017-May-20 16:00N 26°05' W 080°07'0 0.0
2017-May-20 15:30N 26°05' W 080°07'0 0.0
2017-May-20 14:59N 26°05' W 080°07'0 0.0
2017-May-20 14:29N 26°05' W 080°07'0 0.0
2017-May-20 13:29N 26°05' W 080°07'0 0.0
2017-May-20 12:59N 26°05' W 080°07'0 0.0
2017-May-20 12:25N 26°05' W 080°07'0 0.0
2017-May-20 11:58N 26°05' W 080°07'0 0.0
2017-May-20 11:28N 26°05' W 080°07'0 0.0
2017-May-20 10:58N 26°05' W 080°07'0 0.0
2017-May-20 10:27N 26°05' W 080°07'0 0.0
2017-May-20 09:54N 26°05' W 080°07'0 0.0
2017-May-20 09:30N 26°05' W 080°07'0 0.6
2017-May-20 09:01N 26°05' W 080°07'5 9.6
2017-May-20 08:30N 26°06' W 080°02'611.4
2017-May-20 08:01N 26°01' W 079°58'713.6
2017-May-20 07:31N 25°55' W 079°54'713.9
2017-May-20 07:01N 25°49' W 079°50'714.7
2017-May-20 06:30N 25°42' W 079°50'714.9
2017-May-20 06:00N 25°35' W 079°50'714.6
2017-May-20 05:30N 25°27' W 079°50'714.7
2017-May-20 05:00N 25°20' W 079°50'7214.3
2017-May-20 00:00N 24°18' W 080°30'19816.5 110 / 301013.0 27.023.027.0
2017-May-19 12:00N 23°12' W 083°54'   110 / 201011.0 27.023.028.0
Track history (hours):
 
Tides and Currents Weather Stations Pressure Air Temp Water Temp Dewpoint Dewpoint Depression Visibility Wind Speed Wind Dir Waves Ship Positions

Carnival Conquest

Operator: Carnival Cruise Lines

Last reported at 2017-May-29 11:30 UTC. Time now 2017-May-29 11:31 UTC.
Position N 26°05' W 080°07'.

Type: Ship. MMSI: 357657000.

Date/timePositionNaut miles runAvg speedWind from/ knotsBaromVisibWave heightAir tempDewpointWater temp
2017-May-29 11:30N 26°05' W 080°07'0 0.0
2017-May-29 11:00N 26°05' W 080°07'0 0.0
2017-May-29 10:23N 26°05' W 080°07'0 0.0
2017-May-29 09:59N 26°05' W 080°07'0 0.0
2017-May-29 09:29N 26°05' W 080°07'0 0.4
2017-May-29 09:00N 26°05' W 080°07'4 8.2
2017-May-29 08:30N 26°06' W 080°03'612.9
2017-May-29 08:00N 26°06' W 079°55'815.4
2017-May-29 07:31N 26°07' W 079°47'816.9
2017-May-29 07:01N 26°09' W 079°38'817.0
2017-May-29 06:31N 26°10' W 079°28'917.0
2017-May-29 06:01N 26°11' W 079°19'814.9
2017-May-29 05:30N 26°12' W 079°11'917.2
2017-May-29 05:00N 26°12' W 079°01'917.2
2017-May-29 04:31N 26°10' W 078°52'1018.3
2017-May-29 03:58N 26°08' W 078°41'6917.4
2017-May-29 00:00N 25°42' W 077°30'33 1.9 180 / 101017.0 28.022.029.0
2017-May-28 07:00N 25°48' W 076°54'4211.1 150 / 151016.0 26.023.027.0
2017-May-28 03:14N 25°33' W 076°11'3 8.6
2017-May-28 02:50N 25°31' W 076°08'3412.0
2017-May-28 00:00N 25°12' W 075°36'54 2.3 1017.0 26.023.028.0
2017-May-27 00:00N 25°36' W 076°30'129 7.6 1017.0 26.023.028.0
2017-May-26 07:00N 26°12' W 078°48'17 6.6 180 / 151014.0 28.025.028.0
2017-May-26 04:24N 26°18' W 079°06'3 7.1
2017-May-26 04:00N 26°17' W 079°09'4 7.5
2017-May-26 03:30N 26°17' W 079°13'4 7.8
2017-May-26 02:58N 26°16' W 079°18'4 7.9
2017-May-26 02:30N 26°15' W 079°22'4 7.9
2017-May-26 02:00N 26°14' W 079°26'4 7.8
2017-May-26 01:30N 26°13' W 079°30'4 8.7
2017-May-26 01:00N 26°12' W 079°35'6457.4
2017-May-26 01:00N 26°06' W 079°36'611.9 260 / 151014.0 28.022.028.0
2017-May-26 00:30N 26°11' W 079°39'4 8.1
2017-May-26 00:00N 26°10' W 079°44'4 8.1
2017-May-25 23:30N 26°10' W 079°48'4 8.2
2017-May-25 23:00N 26°09' W 079°53'4 8.3
2017-May-25 22:30N 26°08' W 079°57'4 8.9
2017-May-25 22:00N 26°07' W 080°02'4 8.4
2017-May-25 21:30N 26°06' W 080°07'0 0.9
2017-May-25 20:59N 26°05' W 080°07'0 0.0
2017-May-25 20:28N 26°05' W 080°07'0 0.0
2017-May-25 19:55N 26°05' W 080°07'0 0.0
2017-May-25 19:28N 26°05' W 080°07'0 0.0
2017-May-25 18:49N 26°05' W 080°07'0 0.0
2017-May-25 18:30N 26°05' W 080°07'0 0.0
2017-May-25 18:00N 26°05' W 080°07'0 0.0
2017-May-25 17:24N 26°05' W 080°07'0 0.0
2017-May-25 16:51N 26°05' W 080°07'0 0.0
2017-May-25 16:30N 26°05' W 080°07'0 0.0
2017-May-25 15:59N 26°05' W 080°07'0 0.0
2017-May-25 15:26N 26°05' W 080°07'0 0.0
2017-May-25 14:56N 26°05' W 080°07'0 0.0
2017-May-25 13:59N 26°05' W 080°07'0 0.0
2017-May-25 13:28N 26°05' W 080°07'0 0.0
2017-May-25 12:58N 26°05' W 080°07'0 0.0
2017-May-25 12:22N 26°05' W 080°07'0 0.1
2017-May-25 12:00N 26°05' W 080°07'3 6.3
2017-May-25 11:30N 26°06' W 080°04'611.6
2017-May-25 11:01N 26°06' W 079°57'917.8
2017-May-25 10:30N 26°08' W 079°47'918.8
2017-May-25 10:00N 26°09' W 079°37'1019.0
2017-May-25 09:30N 26°10' W 079°26'918.9
2017-May-25 09:00N 26°11' W 079°16'5919.4
2017-May-25 06:00N 26°00' W 078°12'3918.4 280 / 301012.0 26.023.028.0
2017-May-25 03:52N 25°49' W 077°30'719.9
2017-May-25 03:30N 25°47' W 077°23'1020.4
2017-May-25 03:00N 25°45' W 077°12'1020.0
2017-May-25 02:30N 25°43' W 077°01'1219.8
2017-May-25 01:55N 25°41' W 076°48'819.5
2017-May-25 01:30N 25°39' W 076°39'2919.1
2017-May-25 00:00N 25°24' W 076°12'168 9.9 130 / 161013.0 26.025.026.0
2017-May-24 07:00N 23°12' W 074°18'12818.3 150 / 201016.0 26.023.026.0
2017-May-24 00:00N 22°18' W 072°12'30 1.7 090 / 161016.0 26.023.027.0
2017-May-23 06:00N 22°06' W 071°42'6510.9 140 / 201017.0 26.022.027.0
2017-May-23 00:00N 22°48' W 072°36'21912.1 070 / 201017.0 25.021.026.0
2017-May-22 06:00N 25°12' W 075°36'6913.9 090 / 151020.0 26.020.026.0
2017-May-22 01:00N 25°36' W 076°48'38 2.3 090 / 181019.0 25.019.026.0
2017-May-21 08:00N 25°42' W 077°30'9113.1 050 / 201019.0 26.022.027.0
2017-May-21 01:00N 26°12' W 079°06'1110.2 110 / 181018.0 26.020.028.0
2017-May-20 23:52N 26°16' W 079°18'513.5
2017-May-20 23:30N 26°14' W 079°23'715.1
2017-May-20 23:00N 26°12' W 079°31'815.4
2017-May-20 22:30N 26°10' W 079°40'815.3
2017-May-20 22:00N 26°09' W 079°48'715.0
2017-May-20 21:30N 26°07' W 079°56'713.1
2017-May-20 21:01N 26°07' W 080°03'4 6.9
2017-May-20 20:29N 26°05' W 080°07'0 0.1
2017-May-20 19:59N 26°05' W 080°07'0 0.0
2017-May-20 19:25N 26°05' W 080°07'0 0.0
2017-May-20 18:52N 26°05' W 080°07'0 0.0
2017-May-20 18:25N 26°05' W 080°07'0 0.0
2017-May-20 17:46N 26°05' W 080°07'0 0.0
2017-May-20 17:27N 26°05' W 080°07'0 0.0
2017-May-20 16:54N 26°05' W 080°07'0 0.0
2017-May-20 16:24N 26°05' W 080°07'0 0.0
2017-May-20 16:00N 26°05' W 080°07'0 0.0
2017-May-20 15:30N 26°05' W 080°07'0 0.0
2017-May-20 14:59N 26°05' W 080°07'0 0.0
2017-May-20 14:29N 26°05' W 080°07'0 0.0
2017-May-20 13:29N 26°05' W 080°07'0 0.0
2017-May-20 12:59N 26°05' W 080°07'0 0.0
2017-May-20 12:25N 26°05' W 080°07'0 0.0
2017-May-20 11:58N 26°05' W 080°07'0 0.0
2017-May-20 11:28N 26°05' W 080°07'0 0.0
2017-May-20 10:58N 26°05' W 080°07'0 0.0
2017-May-20 10:27N 26°05' W 080°07'0 0.0
2017-May-20 09:54N 26°05' W 080°07'0 0.0
2017-May-20 09:30N 26°05' W 080°07'0 0.6
2017-May-20 09:01N 26°05' W 080°07'5 9.6
2017-May-20 08:30N 26°06' W 080°02'611.4
2017-May-20 08:01N 26°01' W 079°58'713.6
2017-May-20 07:31N 25°55' W 079°54'713.9
2017-May-20 07:01N 25°49' W 079°50'714.7
2017-May-20 06:30N 25°42' W 079°50'714.9
2017-May-20 06:00N 25°35' W 079°50'714.6
2017-May-20 05:30N 25°27' W 079°50'714.7
2017-May-20 05:00N 25°20' W 079°50'7214.3
2017-May-20 00:00N 24°18' W 080°30'19816.5 110 / 301013.0 27.023.027.0
2017-May-19 12:00N 23°12' W 083°54'   110 / 201011.0 27.023.028.0

Dump ship's entire track history